Time,TemperatureF,DewpointF,PressureIn,WindDirection,WindDirectionDegrees,WindSpeedMPH,WindSpeedGustMPH,Humidity,HourlyPrecipIn,Conditions,Clouds,dailyrainin,SoftwareType,DateUTC
2013-08-15 00:10:00,49.7,46.0,30.12,WNW,297,0.0,0.0,87,0.00,,,0.00,weatherlink.com 1.10,2013-08-15 04:10:00,
2013-08-15 00:25:00,49.5,46.0,30.12,WNW,297,0.0,1.0,88,0.00,,,0.00,weatherlink.com 1.10,2013-08-15 04:25:00,
2013-08-15 00:40:00,49.4,46.0,30.12,WNW,297,0.0,0.0,88,0.00,,,0.00,weatherlink.com 1.10,2013-08-15 04:40:00,
2013-08-15 00:55:00,50.1,47.0,30.12,WNW,297,0.0,2.0,88,0.00,,,0.00,weatherlink.com 1.10,2013-08-15 04:55:00,
2013-08-15 01:10:00,50.7,47.0,30.12,WNW,297,0.0,1.0,88,0.00,,,0.00,weatherlink.com 1.10,2013-08-15 05:10:00,
2013-08-15 01:25:00,49.9,46.0,30.11,WNW,297,0.0,0.0,87,0.00,,,0.00,weatherlink.com 1.10,2013-08-15 05:25:00,
2013-08-15 01:40:00,48.3,45.0,30.11,WNW,297,1.0,2.0,88,0.00,,,0.00,weatherlink.com 1.10,2013-08-15 05:40:00,
2013-08-15 01:55:00,47.7,44.0,30.11,WNW,297,0.0,1.0,88,0.00,,,0.00,weatherlink.com 1.10,2013-08-15 05:55:00,
2013-08-15 02:10:00,47.1,44.0,30.11,WNW,297,0.0,0.0,88,0.00,,,0.00,weatherlink.com 1.10,2013-08-15 06:10:00,
2013-08-15 02:25:00,46.5,43.0,30.11,WNW,297,0.0,0.0,88,0.00,,,0.00,weatherlink.com 1.10,2013-08-15 06:25:00,
2013-08-15 02:40:00,45.6,43.0,30.10,WNW,297,0.0,1.0,89,0.00,,,0.00,weatherlink.com 1.10,2013-08-15 06:40:00,
2013-08-15 02:55:00,45.7,43.0,30.10,WNW,297,0.0,2.0,89,0.00,,,0.00,weatherlink.com 1.10,2013-08-15 06:55:00,
2013-08-15 03:10:00,45.6,43.0,30.10,WNW,297,0.0,1.0,89,0.00,,,0.00,weatherlink.com 1.10,2013-08-15 07:10:00,
2013-08-15 03:25:00,45.9,43.0,30.10,WNW,296,0.0,1.0,89,0.00,,,0.00,weatherlink.com 1.10,2013-08-15 07:25:00,
2013-08-15 03:40:00,46.8,44.0,30.10,WNW,297,0.0,1.0,89,0.00,,,0.00,weatherlink.com 1.10,2013-08-15 07:40:00,
2013-08-15 03:55:00,46.9,44.0,30.09,WNW,297,0.0,1.0,89,0.00,,,0.00,weatherlink.com 1.10,2013-08-15 07:55:00,
2013-08-15 04:10:00,46.5,44.0,30.09,WNW,297,0.0,0.0,89,0.00,,,0.00,weatherlink.com 1.10,2013-08-15 08:10:00,
2013-08-15 04:25:00,46.5,44.0,30.09,WNW,297,0.0,0.0,89,0.00,,,0.00,weatherlink.com 1.10,2013-08-15 08:25:00,
2013-08-15 04:40:00,45.8,43.0,30.09,WNW,297,0.0,2.0,89,0.00,,,0.00,weatherlink.com 1.10,2013-08-15 08:40:00,
2013-08-15 04:55:00,45.6,43.0,30.09,WNW,297,0.0,0.0,89,0.00,,,0.00,weatherlink.com 1.10,2013-08-15 08:55:00,
2013-08-15 05:10:00,45.4,42.0,30.09,WNW,296,0.0,0.0,89,0.00,,,0.00,weatherlink.com 1.10,2013-08-15 09:10:00,
2013-08-15 05:25:00,45.1,42.0,30.10,WNW,297,0.0,0.0,89,0.00,,,0.00,weatherlink.com 1.10,2013-08-15 09:25:00,
2013-08-15 05:40:00,44.6,42.0,30.10,WNW,297,0.0,0.0,89,0.00,,,0.00,weatherlink.com 1.10,2013-08-15 09:40:00,
2013-08-15 05:55:00,44.6,42.0,30.10,WNW,297,0.0,1.0,89,0.00,,,0.00,weatherlink.com 1.10,2013-08-15 09:55:00,
2013-08-15 06:10:00,45.5,43.0,30.10,WNW,297,0.0,1.0,89,0.00,,,0.00,weatherlink.com 1.10,2013-08-15 10:10:00,
2013-08-15 06:25:00,45.9,43.0,30.10,WNW,297,1.0,2.0,89,0.00,,,0.00,weatherlink.com 1.10,2013-08-15 10:25:00,
2013-08-15 06:40:00,48.1,45.0,30.10,WNW,296,2.0,4.0,90,0.00,,,0.00,weatherlink.com 1.10,2013-08-15 10:40:00,
2013-08-15 06:55:00,48.6,46.0,30.10,WNW,296,0.0,1.0,89,0.00,,,0.00,weatherlink.com 1.10,2013-08-15 10:55:00,
2013-08-15 07:10:00,47.8,45.0,30.10,WNW,297,0.0,1.0,89,0.00,,,0.00,weatherlink.com 1.10,2013-08-15 11:10:00,
2013-08-15 07:25:00,48.4,45.0,30.10,WNW,297,0.0,1.0,89,0.00,,,0.00,weatherlink.com 1.10,2013-08-15 11:25:00,
2013-08-15 07:40:00,48.3,45.0,30.10,WNW,297,0.0,1.0,89,0.00,,,0.00,weatherlink.com 1.10,2013-08-15 11:40:00,
2013-08-15 07:55:00,49.9,47.0,30.11,WNW,297,0.0,0.0,89,0.00,,,0.00,weatherlink.com 1.10,2013-08-15 11:55:00,
2013-08-15 08:10:00,52.4,49.0,30.11,WNW,297,0.0,2.0,89,0.00,,,0.00,weatherlink.com 1.10,2013-08-15 12:10:00,
2013-08-15 08:25:00,54.4,51.0,30.11,WNW,297,3.0,4.0,89,0.00,,,0.00,weatherlink.com 1.10,2013-08-15 12:25:00,
2013-08-15 08:40:00,55.9,52.0,30.11,WNW,296,2.0,4.0,88,0.00,,,0.00,weatherlink.com 1.10,2013-08-15 12:40:00,
2013-08-15 08:55:00,57.1,54.0,30.11,WSW,254,3.0,5.0,88,0.00,,,0.00,weatherlink.com 1.10,2013-08-15 12:55:00,
2013-08-15 09:25:00,59.2,55.0,30.11,WNW,293,5.0,8.0,87,0.00,,,0.00,weatherlink.com 1.10,2013-08-15 13:25:00,
2013-08-15 09:40:00,60.8,57.0,30.11,West,262,7.0,8.0,86,0.00,,,0.00,weatherlink.com 1.10,2013-08-15 13:40:00,
2013-08-15 09:55:00,62.3,56.0,30.10,WNW,300,7.0,9.0,80,0.00,,,0.00,weatherlink.com 1.10,2013-08-15 13:55:00,
2013-08-15 10:10:00,63.3,56.0,30.10,WNW,282,5.0,8.0,77,0.00,,,0.00,weatherlink.com 1.10,2013-08-15 14:10:00,
2013-08-15 10:25:00,63.7,56.0,30.10,West,276,5.0,9.0,77,0.00,,,0.00,weatherlink.com 1.10,2013-08-15 14:25:00,
2013-08-15 10:40:00,64.8,56.0,30.09,WSW,246,5.0,9.0,73,0.00,,,0.00,weatherlink.com 1.10,2013-08-15 14:40:00,
2013-08-15 10:55:00,65.4,56.0,30.10,WNW,282,4.0,14.0,71,0.00,,,0.00,weatherlink.com 1.10,2013-08-15 14:55:00,
2013-08-15 11:11:00,65.7,54.0,30.10,NW,304,5.0,11.0,66,0.00,,,0.00,weatherlink.com 1.10,2013-08-15 15:11:00,
2013-08-15 11:26:00,66.7,56.0,30.09,WSW,251,4.0,13.0,68,0.00,,,0.00,weatherlink.com 1.10,2013-08-15 15:26:00,
2013-08-15 11:40:00,66.8,54.0,30.09,West,281,9.0,13.0,63,0.00,,,0.00,weatherlink.com 1.10,2013-08-15 15:40:00,
2013-08-15 11:56:00,67.4,54.0,30.09,SW,223,8.0,10.0,62,0.00,,,0.00,weatherlink.com 1.10,2013-08-15 15:56:00,
2013-08-15 12:11:00,67.9,52.0,30.08,WSW,246,9.0,10.0,58,0.00,,,0.00,weatherlink.com 1.10,2013-08-15 16:11:00,
2013-08-15 12:26:00,68.5,52.0,30.08,West,269,6.0,13.0,57,0.00,,,0.00,weatherlink.com 1.10,2013-08-15 16:26:00,
2013-08-15 12:41:00,68.8,54.0,30.08,WSW,244,4.0,11.0,59,0.00,,,0.00,weatherlink.com 1.10,2013-08-15 16:41:00,
2013-08-15 12:56:00,69.4,54.0,30.07,WSW,248,7.0,12.0,58,0.00,,,0.00,weatherlink.com 1.10,2013-08-15 16:56:00,
2013-08-15 13:11:00,69.5,53.0,30.07,West,261,7.0,11.0,57,0.00,,,0.00,weatherlink.com 1.10,2013-08-15 17:11:00,
2013-08-15 13:26:00,69.8,56.0,30.07,WSW,252,4.0,11.0,61,0.00,,,0.00,weatherlink.com 1.10,2013-08-15 17:26:00,
2013-08-15 13:41:00,70.6,54.0,30.07,West,261,4.0,13.0,56,0.00,,,0.00,weatherlink.com 1.10,2013-08-15 17:41:00,
2013-08-15 13:56:00,71.2,54.0,30.06,West,275,8.0,16.0,54,0.00,,,0.00,weatherlink.com 1.10,2013-08-15 17:56:00,
2013-08-15 14:11:00,71.6,52.0,30.06,WNW,292,7.0,14.0,51,0.00,,,0.00,weatherlink.com 1.10,2013-08-15 18:11:00,
2013-08-15 14:26:00,71.8,53.0,30.06,WNW,298,9.0,14.0,52,0.00,,,0.00,weatherlink.com 1.10,2013-08-15 18:26:00,
2013-08-15 14:41:00,72.0,53.0,30.06,West,267,5.0,16.0,52,0.00,,,0.00,weatherlink.com 1.10,2013-08-15 18:41:00,
2013-08-15 14:56:00,72.1,54.0,30.06,West,278,9.0,16.0,53,0.00,,,0.00,weatherlink.com 1.10,2013-08-15 18:56:00,
2013-08-15 15:11:00,72.5,54.0,30.06,WNW,284,8.0,14.0,53,0.00,,,0.00,weatherlink.com 1.10,2013-08-15 19:11:00,
2013-08-15 15:26:00,72.7,54.0,30.06,WNW,283,11.0,14.0,52,0.00,,,0.00,weatherlink.com 1.10,2013-08-15 19:26:00,
2013-08-15 15:41:00,73.6,54.0,30.06,West,270,8.0,14.0,51,0.00,,,0.00,weatherlink.com 1.10,2013-08-15 19:41:00,
2013-08-15 15:56:00,74.3,55.0,30.05,NW,323,7.0,13.0,52,0.00,,,0.00,weatherlink.com 1.10,2013-08-15 19:56:00,
2013-08-15 16:11:00,73.5,52.0,30.06,NW,307,7.0,15.0,48,0.00,,,0.00,weatherlink.com 1.10,2013-08-15 20:11:00,
2013-08-15 16:26:00,72.5,54.0,30.06,NW,323,6.0,12.0,52,0.00,,,0.00,weatherlink.com 1.10,2013-08-15 20:26:00,
2013-08-15 16:41:00,71.9,54.0,30.06,NW,319,7.0,9.0,54,0.00,,,0.00,weatherlink.com 1.10,2013-08-15 20:41:00,
2013-08-15 16:56:00,71.9,54.0,30.06,WNW,284,6.0,11.0,54,0.00,,,0.00,weatherlink.com 1.10,2013-08-15 20:56:00,
2013-08-15 17:11:00,71.3,54.0,30.06,NW,304,6.0,11.0,54,0.00,,,0.00,weatherlink.com 1.10,2013-08-15 21:11:00,
2013-08-15 17:41:00,71.3,55.0,30.06,WSW,251,6.0,10.0,57,0.00,,,0.00,weatherlink.com 1.10,2013-08-15 21:41:00,
2013-08-15 17:56:00,71.4,54.0,30.06,West,269,5.0,11.0,55,0.00,,,0.00,weatherlink.com 1.10,2013-08-15 21:56:00,
2013-08-15 18:11:00,70.6,55.0,30.06,WNW,296,5.0,6.0,58,0.00,,,0.00,weatherlink.com 1.10,2013-08-15 22:11:00,
2013-08-15 18:26:00,69.1,54.0,30.07,West,277,6.0,7.0,59,0.00,,,0.00,weatherlink.com 1.10,2013-08-15 22:26:00,
2013-08-15 18:41:00,68.6,54.0,30.07,West,264,5.0,9.0,60,0.00,,,0.00,weatherlink.com 1.10,2013-08-15 22:41:00,
2013-08-15 18:56:00,68.6,53.0,30.06,WNW,290,7.0,10.0,58,0.00,,,0.00,weatherlink.com 1.10,2013-08-15 22:56:00,
2013-08-15 19:11:00,68.5,53.0,30.07,West,278,7.0,9.0,59,0.00,,,0.00,weatherlink.com 1.10,2013-08-15 23:11:00,
2013-08-15 19:26:00,68.4,54.0,30.07,West,265,5.0,5.0,61,0.00,,,0.00,weatherlink.com 1.10,2013-08-15 23:26:00,
2013-08-15 19:41:00,66.7,54.0,30.08,West,273,6.0,8.0,64,0.00,,,0.00,weatherlink.com 1.10,2013-08-15 23:41:00,
2013-08-15 19:56:00,65.5,55.0,30.08,NW,322,9.0,9.0,68,0.00,,,0.00,weatherlink.com 1.10,2013-08-15 23:56:00,
2013-08-15 20:11:00,65.0,55.0,30.08,WNW,288,4.0,7.0,69,0.00,,,0.00,weatherlink.com 1.10,2013-08-16 00:11:00,
2013-08-15 20:27:00,64.0,54.0,30.09,West,281,2.0,6.0,71,0.00,,,0.00,weatherlink.com 1.10,2013-08-16 00:27:00,
2013-08-15 20:42:00,63.5,55.0,30.09,WNW,291,2.0,5.0,73,0.00,,,0.00,weatherlink.com 1.10,2013-08-16 00:42:00,
2013-08-15 20:57:00,62.8,54.0,30.09,WNW,291,0.0,0.0,74,0.00,,,0.00,weatherlink.com 1.10,2013-08-16 00:57:00,
2013-08-15 21:12:00,61.8,54.0,30.10,WNW,291,2.0,4.0,75,0.00,,,0.00,weatherlink.com 1.10,2013-08-16 01:12:00,
2013-08-15 21:27:00,60.9,54.0,30.10,SW,215,5.0,6.0,77,0.00,,,0.00,weatherlink.com 1.10,2013-08-16 01:27:00,
2013-08-15 21:42:00,58.6,53.0,30.11,SW,228,0.0,3.0,82,0.00,,,0.00,weatherlink.com 1.10,2013-08-16 01:42:00,
2013-08-15 21:57:00,58.4,53.0,30.11,SW,229,0.0,4.0,83,0.00,,,0.00,weatherlink.com 1.10,2013-08-16 01:57:00,
2013-08-15 22:12:00,58.6,54.0,30.11,West,265,2.0,5.0,84,0.00,,,0.00,weatherlink.com 1.10,2013-08-16 02:12:00,
2013-08-15 22:27:00,58.5,54.0,30.12,WNW,292,5.0,7.0,84,0.00,,,0.00,weatherlink.com 1.10,2013-08-16 02:27:00,
2013-08-15 22:57:00,58.5,54.0,30.12,WNW,290,2.0,5.0,84,0.00,,,0.00,weatherlink.com 1.10,2013-08-16 02:57:00,
2013-08-15 23:12:00,57.8,53.0,30.12,West,281,1.0,4.0,84,0.00,,,0.00,weatherlink.com 1.10,2013-08-16 03:12:00,
2013-08-15 23:27:00,57.2,53.0,30.12,West,281,0.0,3.0,85,0.00,,,0.00,weatherlink.com 1.10,2013-08-16 03:27:00,
2013-08-15 23:42:00,56.4,52.0,30.13,West,281,2.0,3.0,86,0.00,,,0.00,weatherlink.com 1.10,2013-08-16 03:42:00,
2013-08-15 23:57:00,56.2,52.0,30.12,WNW,296,4.0,6.0,86,0.00,,,0.00,weatherlink.com 1.10,2013-08-16 03:57:00,